Time;durP1;ratioP1;P1;durP2;ratioP2;P2;SDS_P1;SDS_P2;PMS_P1;PMS_P2;Temp;Humidity;BMP_temperature;BMP_pressure;BME280_temperature;BME280_humidity;BME280_pressure;Samples;Min_cycle;Max_cycle;Signal;HPM_P1;HPM_P2
2024/01/17 00:04:14;;;;;;;7.83;7.03;;;;;;;16.38;40.94;95173.75;10362518;28;20038;-29
2024/01/17 00:09:15;;;;;;;8.63;6.57;;;;;;;16.37;40.87;95166.22;10365416;28;20225;-29
2024/01/17 00:14:15;;;;;;;6.95;6.25;;;;;;;16.38;41.31;95157.78;10365985;28;20041;-30
2024/01/17 00:19:16;;;;;;;6.22;5.43;;;;;;;16.36;40.57;95155.22;10364334;28;20091;-30
2024/01/17 00:24:16;;;;;;;7.87;6.30;;;;;;;16.35;41.17;95143.47;10364588;28;20034;-30
2024/01/17 00:29:17;;;;;;;7.30;5.82;;;;;;;16.37;41.00;95141.78;10365230;28;20165;-31
2024/01/17 00:34:17;;;;;;;7.30;6.17;;;;;;;16.35;40.91;95132.56;10364596;28;20391;-31
2024/01/17 00:39:18;;;;;;;7.40;5.77;;;;;;;16.35;41.29;95123.25;10365537;28;20038;-29
2024/01/17 00:44:21;;;;;;;6.57;5.88;;;;;;;16.35;41.00;95113.16;10364023;28;20042;-30
2024/01/17 00:49:21;;;;;;;7.25;5.28;;;;;;;16.36;40.70;95104.72;10364445;28;20046;-29
2024/01/17 00:54:22;;;;;;;6.20;5.40;;;;;;;16.36;40.55;95094.63;10363734;28;20037;-29
2024/01/17 00:59:22;;;;;;;5.53;5.03;;;;;;;16.34;40.91;95096.34;10364691;28;20564;-29
2024/01/17 01:04:23;;;;;;;6.40;5.77;;;;;;;16.37;40.86;95080.34;10363147;28;20597;-31
2024/01/17 01:09:23;;;;;;;6.73;6.00;;;;;;;16.33;41.95;95069.44;10362909;28;20046;-30
2024/01/17 01:14:24;;;;;;;6.88;5.97;;;;;;;16.35;42.11;95064.38;10363912;28;20168;-30
2024/01/17 01:19:24;;;;;;;6.63;5.43;;;;;;;16.33;42.18;95048.38;10362104;28;20045;-29
2024/01/17 01:24:24;;;;;;;7.03;5.80;;;;;;;16.29;42.23;95021.53;10362451;28;20048;-30
2024/01/17 01:29:25;;;;;;;5.83;5.20;;;;;;;16.32;42.71;95022.31;10363430;28;20041;-30
2024/01/17 01:34:25;;;;;;;7.37;5.73;;;;;;;16.34;42.42;95035.75;10361989;28;20169;-29
2024/01/17 01:39:28;;;;;;;5.83;5.17;;;;;;;16.33;43.11;95039.13;10363821;28;20030;-31
2024/01/17 01:44:28;;;;;;;7.00;5.88;;;;;;;16.33;43.19;95029.03;10362216;28;20037;-30
2024/01/17 01:49:29;;;;;;;6.53;5.60;;;;;;;16.33;43.34;95030.72;10361920;28;20403;-30
2024/01/17 01:54:30;;;;;;;7.32;5.07;;;;;;;16.33;43.50;95026.50;10361927;28;20033;-30
2024/01/17 01:59:32;;;;;;;6.38;5.55;;;;;;;16.34;43.35;95040.78;10362674;28;20057;-30
2024/01/17 02:04:34;;;;;;;6.70;6.00;;;;;;;16.35;43.32;95041.66;10357226;28;20121;-30
2024/01/17 02:09:35;;;;;;;6.28;5.68;;;;;;;16.32;43.50;95009.69;10361898;28;20531;-29
2024/01/17 02:14:41;;;;;;;5.90;5.30;;;;;;;16.35;43.25;95011.34;10359177;28;20034;-30
2024/01/17 02:19:42;;;;;;;5.95;5.25;;;;;;;16.32;43.73;95007.19;10362632;28;20291;-30
2024/01/17 02:24:42;;;;;;;5.85;5.03;;;;;;;16.34;44.02;94997.03;10361627;28;20397;-30
2024/01/17 02:29:46;;;;;;;6.47;5.60;;;;;;;16.34;44.02;94991.97;10361758;28;20080;-30
2024/01/17 02:34:46;;;;;;;5.32;4.82;;;;;;;16.34;44.15;94979.34;10361869;28;20049;-30
2024/01/17 02:39:47;;;;;;;6.50;5.07;;;;;;;16.32;44.09;94971.81;10361400;28;20037;-30
2024/01/17 02:44:47;;;;;;;5.83;5.23;;;;;;;16.34;44.17;94954.94;10361272;28;20026;-30
2024/01/17 02:49:47;;;;;;;5.03;4.53;;;;;;;16.34;44.23;94960.00;10369010;28;20037;-30
2024/01/17 02:54:48;;;;;;;6.67;4.73;;;;;;;16.34;43.72;94967.56;10368868;28;20064;-30
2024/01/17 02:59:48;;;;;;;5.87;5.13;;;;;;;16.34;44.40;94949.91;10365232;28;20029;-29
2024/01/17 03:04:50;;;;;;;7.97;5.50;;;;;;;16.35;44.36;94931.34;10368224;28;20061;-31
2024/01/17 03:09:50;;;;;;;7.53;4.55;;;;;;;16.34;44.22;94928.84;10368172;28;20045;-30
2024/01/17 03:14:51;;;;;;;8.60;5.43;;;;;;;16.34;44.24;94927.16;10366970;28;20053;-29
2024/01/17 03:19:51;;;;;;;5.00;4.30;;;;;;;16.34;43.87;94922.13;10367398;28;20674;-29
2024/01/17 03:24:51;;;;;;;5.63;5.13;;;;;;;16.32;44.20;94908.69;10368099;28;20033;-29
2024/01/17 03:29:52;;;;;;;5.47;4.80;;;;;;;16.33;44.13;94907.00;10365870;28;20118;-29
2024/01/17 03:34:55;;;;;;;6.30;4.37;;;;;;;16.33;44.29;94885.13;10367779;28;20041;-31
2024/01/17 03:39:57;;;;;;;5.78;4.50;;;;;;;16.31;44.41;94854.03;10366443;28;20556;-30
2024/01/17 03:44:57;;;;;;;4.63;4.13;;;;;;;16.32;44.26;94843.06;10366671;28;20025;-29
2024/01/17 03:49:57;;;;;;;4.43;3.70;;;;;;;16.34;44.16;94837.94;10366834;28;20368;-29
2024/01/17 03:54:58;;;;;;;5.43;4.60;;;;;;;16.34;44.31;94813.53;10364972;28;20045;-29
2024/01/17 03:59:58;;;;;;;5.17;4.50;;;;;;;16.35;44.10;94811.88;10365402;28;20298;-30
2024/01/17 04:04:58;;;;;;;5.00;3.80;;;;;;;16.35;44.30;94784.91;10359839;28;20046;-29
2024/01/17 04:09:59;;;;;;;4.60;4.03;;;;;;;16.34;44.10;94783.25;10365828;28;20034;-29
2024/01/17 04:15:01;;;;;;;5.17;4.67;;;;;;;16.35;44.04;94768.94;10363888;28;20409;-29
2024/01/17 04:20:03;;;;;;;4.22;3.80;;;;;;;16.33;44.32;94753.81;10365574;28;20056;-30
2024/01/17 04:25:04;;;;;;;6.57;4.93;;;;;;;16.31;44.34;94753.03;10364570;28;20288;-29
2024/01/17 04:30:06;;;;;;;4.43;3.60;;;;;;;16.33;44.16;94728.56;10364398;28;20040;-31
2024/01/17 04:35:06;;;;;;;5.20;3.85;;;;;;;16.33;44.52;94728.56;10365243;28;20041;-30
2024/01/17 04:40:08;;;;;;;4.43;3.78;;;;;;;16.38;44.22;94718.38;10363233;28;20054;-29
2024/01/17 04:45:08;;;;;;;3.50;3.20;;;;;;;16.39;44.05;94704.91;10363012;28;20065;-31
2024/01/17 04:50:12;;;;;;;4.80;4.20;;;;;;;16.36;44.42;94692.31;10364499;28;20360;-30
2024/01/17 04:55:15;;;;;;;4.10;3.70;;;;;;;16.38;43.81;94699.00;10362972;28;20103;-30
2024/01/17 05:00:15;;;;;;;4.63;4.15;;;;;;;16.38;44.81;94691.44;10362401;28;20032;-33
2024/01/17 05:05:16;;;;;;;4.60;3.47;;;;;;;16.39;44.23;94683.00;10363838;28;20036;-30
2024/01/17 05:10:16;;;;;;;3.85;3.45;;;;;;;16.41;44.39;94683.78;10362512;28;20038;-30
2024/01/17 05:15:16;;;;;;;3.37;3.07;;;;;;;16.39;43.87;94660.28;10362991;28;20482;-29
2024/01/17 05:20:17;;;;;;;5.07;3.53;;;;;;;16.41;44.15;94666.13;10363358;28;20207;-29
2024/01/17 05:25:17;;;;;;;3.35;2.88;;;;;;;16.44;43.85;94660.97;10361815;28;20032;-29
2024/01/17 05:30:23;;;;;;;6.07;3.85;;;;;;;16.46;43.09;94645.81;10354667;28;20033;-29
2024/01/17 05:35:24;;;;;;;5.50;3.47;;;;;;;16.46;43.25;94628.13;10362847;28;20059;-30
2024/01/17 05:40:24;;;;;;;4.38;3.50;;;;;;;16.44;43.82;94620.59;10362140;28;20649;-30
2024/01/17 05:45:25;;;;;;;6.57;3.23;;;;;;;16.46;44.02;94621.38;10362003;28;20482;-29
2024/01/17 05:50:25;;;;;;;3.63;3.28;;;;;;;16.48;44.45;94601.13;10363140;28;20413;-29
2024/01/17 05:55:26;;;;;;;3.10;2.80;;;;;;;16.48;44.21;94584.28;10361933;28;20034;-30
2024/01/17 06:00:27;;;;;;;6.22;3.10;;;;;;;16.46;44.58;94562.47;10361866;28;20086;-30
2024/01/17 06:05:27;;;;;;;3.85;2.95;;;;;;;16.46;44.70;94550.66;10354565;28;20034;-30
2024/01/17 06:10:28;;;;;;;12.47;5.53;;;;;;;16.45;44.56;94531.31;10360986;28;20044;-29
2024/01/17 06:15:28;;;;;;;3.97;3.03;;;;;;;16.42;45.10;94510.38;10359778;28;20031;-30
2024/01/17 06:20:30;;;;;;;3.27;2.97;;;;;;;16.42;45.20;94506.16;10338670;28;20397;-30
2024/01/17 06:25:30;;;;;;;2.50;2.30;;;;;;;16.50;43.60;94498.38;10314885;28;20037;-30
2024/01/17 06:30:30;;;;;;;6.07;2.73;;;;;;;16.46;42.37;94482.47;10312609;28;20029;-30
2024/01/17 06:35:31;;;;;;;3.70;2.00;;;;;;;16.38;43.45;94486.91;10305366;28;20022;-30
2024/01/17 06:40:32;;;;;;;13.60;3.00;;;;;;;16.35;45.32;94461.72;10307473;28;20300;-31
2024/01/17 06:45:32;;;;;;;3.47;2.88;;;;;;;16.34;44.68;94467.66;10320371;28;20046;-30
2024/01/17 06:50:33;;;;;;;8.67;2.73;;;;;;;16.31;45.62;94465.22;10307953;28;20057;-30
2024/01/17 06:55:33;;;;;;;4.20;2.78;;;;;;;16.32;44.73;94456.75;10309835;28;20026;-30
2024/01/17 07:00:34;;;;;;;5.13;2.67;;;;;;;16.31;45.31;94450.06;10312649;28;20063;-30
2024/01/17 07:05:35;;;;;;;3.75;2.50;;;;;;;16.28;44.97;94441.75;10306993;28;20351;-31
2024/01/17 07:10:36;;;;;;;5.13;2.30;;;;;;;16.27;45.25;94424.94;10308451;28;20038;-31
2024/01/17 07:15:36;;;;;;;5.18;2.67;;;;;;;16.34;44.55;94413.78;10304150;28;20300;-30
2024/01/17 07:20:37;;;;;;;5.83;2.10;;;;;;;16.36;43.89;94415.41;10307153;28;20092;-30
2024/01/17 07:25:38;;;;;;;5.20;2.50;;;;;;;16.41;44.63;94406.03;10346412;28;20489;-30
2024/01/17 07:30:40;;;;;;;6.43;3.10;;;;;;;16.37;45.70;94401.13;10365153;28;20740;-30
2024/01/17 07:35:40;;;;;;;6.55;2.25;;;;;;;16.33;45.75;94397.81;10365491;28;20029;-31
2024/01/17 07:40:41;;;;;;;5.57;2.80;;;;;;;16.33;45.45;94394.47;10365256;28;20049;-31
2024/01/17 07:45:42;;;;;;;4.70;2.40;;;;;;;16.33;45.59;94387.72;10365786;28;20085;-31
2024/01/17 07:50:42;;;;;;;5.13;3.10;;;;;;;16.32;45.58;94381.03;10366678;28;20103;-31
2024/01/17 07:55:43;;;;;;;4.53;1.65;;;;;;;16.32;45.32;94368.41;10365750;28;20566;-30
2024/01/17 08:00:43;;;;;;;3.53;2.47;;;;;;;16.31;45.02;94359.19;10364893;28;20044;-30
2024/01/17 08:05:43;;;;;;;3.10;1.90;;;;;;;16.30;45.45;94331.44;10366435;28;20038;-30
2024/01/17 08:10:44;;;;;;;3.77;2.30;;;;;;;16.30;45.21;94327.22;10364913;28;20293;-31
2024/01/17 08:15:44;;;;;;;3.60;2.00;;;;;;;16.30;45.31;94301.97;10364802;28;20044;-30
2024/01/17 08:20:44;;;;;;;3.25;1.80;;;;;;;16.28;44.92;94287.75;10365111;28;20121;-32
2024/01/17 08:25:45;;;;;;;2.53;1.77;;;;;;;16.28;45.09;94288.56;10364750;28;20033;-30
2024/01/17 08:30:45;;;;;;;2.05;1.52;;;;;;;16.29;45.22;94275.06;10364189;28;20029;-30
2024/01/17 08:35:46;;;;;;;2.93;1.90;;;;;;;16.28;44.76;94278.47;10364973;28;20026;-29
2024/01/17 08:40:46;;;;;;;2.93;1.73;;;;;;;16.29;44.72;94272.53;10363847;28;20418;-30
2024/01/17 08:45:46;;;;;;;2.90;1.80;;;;;;;16.28;45.07;94275.94;10364415;28;20045;-30
2024/01/17 08:50:47;;;;;;;4.57;1.50;;;;;;;16.29;45.19;94267.50;10364043;28;20445;-30
2024/01/17 08:55:48;;;;;;;2.40;1.70;;;;;;;16.31;45.25;94257.38;10363609;28;20030;-32
2024/01/17 09:00:48;;;;;;;2.42;1.80;;;;;;;16.29;44.78;94262.44;10362886;28;20320;-30
2024/01/17 09:05:48;;;;;;;2.70;1.70;;;;;;;16.25;44.25;94248.28;10364117;28;20517;-30
2024/01/17 09:10:49;;;;;;;2.17;1.53;;;;;;;16.29;45.11;94254.88;10363413;28;20297;-32
2024/01/17 09:15:49;;;;;;;2.20;1.70;;;;;;;16.28;44.64;94247.38;10362495;28;20030;-30
2024/01/17 09:20:49;;;;;;;2.07;1.53;;;;;;;16.28;44.74;94240.59;10363245;28;20040;-31
2024/01/17 09:25:50;;;;;;;2.58;1.70;;;;;;;16.29;44.82;94228.81;10362304;28;20109;-30
2024/01/17 09:30:50;;;;;;;1.70;1.33;;;;;;;16.29;44.85;94223.78;10362466;28;20029;-31
2024/01/17 09:35:51;;;;;;;2.35;1.70;;;;;;;16.31;44.65;94244.75;10363406;28;20045;-30
2024/01/17 09:40:51;;;;;;;1.53;1.43;;;;;;;16.30;44.95;94208.56;10361801;28;20482;-31
2024/01/17 09:45:55;;;;;;;3.70;1.97;;;;;;;16.32;44.77;94213.56;10362174;28;20441;-30
2024/01/17 09:50:57;;;;;;;2.08;1.45;;;;;;;16.31;44.87;94215.28;10362522;28;20516;-30
2024/01/17 09:56:01;;;;;;;1.10;1.00;;;;;;;16.32;44.98;94211.03;10364306;28;20030;-30
2024/01/17 10:01:05;;;;;;;2.20;1.58;;;;;;;16.32;44.81;94181.59;10369501;28;20416;-30
2024/01/17 10:06:07;;;;;;;1.90;1.52;;;;;;;16.30;45.08;94195.94;10367350;28;20512;-30
2024/01/17 10:11:07;;;;;;;3.03;1.40;;;;;;;16.28;44.77;94172.44;10369586;28;20045;-30
2024/01/17 10:16:08;;;;;;;3.80;1.70;;;;;;;16.28;44.99;94162.34;10369529;28;20033;-30
2024/01/17 10:21:11;;;;;;;1.70;1.27;;;;;;;16.30;44.89;94165.66;10370218;28;20671;-30
2024/01/17 10:26:11;;;;;;;1.60;1.50;;;;;;;16.29;44.67;94170.75;10369121;28;20041;-30
2024/01/17 10:31:11;;;;;;;1.83;1.35;;;;;;;16.30;44.64;94150.50;10369289;28;20033;-30
2024/01/17 10:36:13;;;;;;;1.30;1.20;;;;;;;16.30;44.91;94145.44;10369729;28;20086;-31
2024/01/17 10:41:13;;;;;;;1.60;1.33;;;;;;;16.27;44.93;94155.66;10368096;28;20465;-30
2024/01/17 10:46:14;;;;;;;1.30;1.08;;;;;;;16.29;45.06;94135.44;10368493;28;20050;-30
2024/01/17 10:51:23;;;;;;;1.07;0.97;;;;;;;16.30;44.80;94134.53;10365354;28;20038;-31
2024/01/17 10:56:26;;;;;;;2.17;1.65;;;;;;;16.30;44.94;94134.53;10366004;28;20257;-30
2024/01/17 11:07:50;;;;;;;1.38;1.20;;;;;;;16.27;44.72;94110.22;10361506;28;20049;-30
2024/01/17 11:12:52;;;;;;;1.60;1.30;;;;;;;16.26;44.94;94103.53;10366375;28;20045;-30
2024/01/17 11:17:54;;;;;;;1.45;1.13;;;;;;;16.27;44.84;94084.97;10366593;28;20045;-31
2024/01/17 11:22:56;;;;;;;1.60;1.30;;;;;;;16.28;44.95;94071.47;10366084;28;20564;-30
2024/01/17 11:28:09;;;;;;;1.67;1.38;;;;;;;16.23;45.11;94062.41;10366601;28;20584;-30
2024/01/17 11:33:13;;;;;;;1.50;1.20;;;;;;;16.31;44.81;94099.16;10363217;28;20042;-30
2024/01/17 11:38:27;;;;;;;1.23;1.10;;;;;;;16.32;45.02;94082.31;10366786;28;20060;-30
2024/01/17 11:43:35;;;;;;;1.88;1.42;;;;;;;16.31;44.58;94076.44;10364499;28;20049;-30
2024/01/17 11:48:38;;;;;;;1.10;1.00;;;;;;;16.34;45.15;94080.53;10363820;28;20045;-30
2024/01/17 11:53:40;;;;;;;1.27;1.10;;;;;;;16.31;44.81;94063.00;10364453;28;20040;-31
2024/01/17 11:58:43;;;;;;;1.38;1.20;;;;;;;16.34;45.17;94081.38;10365061;28;20557;-30
2024/01/17 12:03:44;;;;;;;4.57;1.27;;;;;;;16.36;45.15;94079.63;10361253;28;20038;-30
2024/01/17 12:08:44;;;;;;;1.25;1.15;;;;;;;16.43;45.39;94075.22;10365367;28;20042;-31
2024/01/17 12:13:47;;;;;;;3.25;1.30;;;;;;;16.43;45.25;94078.56;10365229;28;20030;-30
2024/01/17 12:18:59;;;;;;;1.77;1.67;;;;;;;16.41;45.66;94085.38;10362988;28;20040;-31
2024/01/17 12:23:59;;;;;;;1.42;1.33;;;;;;;16.45;45.50;94084.41;10364570;28;20037;-30
2024/01/17 12:29:10;;;;;;;3.28;1.70;;;;;;;16.57;44.14;94062.94;10360846;28;20544;-30
2024/01/17 12:34:11;;;;;;;2.05;1.40;;;;;;;16.58;44.37;94035.13;10361632;28;20117;-32
2024/01/17 12:39:12;;;;;;;1.20;1.05;;;;;;;16.60;44.29;94028.31;10364465;28;20029;-30
2024/01/17 12:44:13;;;;;;;4.72;1.58;;;;;;;16.60;45.45;94014.88;10364418;28;20034;-30
2024/01/17 12:49:14;;;;;;;4.20;1.50;;;;;;;16.59;45.87;94021.63;10362658;28;20046;-30
2024/01/17 12:54:17;;;;;;;3.05;1.70;;;;;;;16.61;46.14;94003.91;10363524;28;20417;-31
2024/01/17 12:59:18;;;;;;;2.47;1.10;;;;;;;16.61;43.99;93994.59;10362649;28;20037;-33
2024/01/17 13:04:18;;;;;;;3.05;1.30;;;;;;;16.66;43.52;93992.75;10360785;28;20042;-30
2024/01/17 13:09:20;;;;;;;6.17;1.00;;;;;;;16.70;44.19;93991.75;10364085;28;20046;-30
2024/01/17 13:14:23;;;;;;;2.53;1.50;;;;;;;16.73;43.05;93984.06;10361833;28;20042;-31
2024/01/17 13:19:24;;;;;;;2.97;1.23;;;;;;;16.75;42.92;93985.63;10362382;28;20042;-31
2024/01/17 13:24:24;;;;;;;1.43;1.10;;;;;;;16.73;43.77;93963.88;10362805;28;20481;-30
2024/01/17 13:29:24;;;;;;;3.88;1.58;;;;;;;16.74;44.47;93975.59;10361545;28;20056;-30
2024/01/17 13:34:25;;;;;;;2.80;1.17;;;;;;;16.78;42.80;93956.91;10361564;28;20164;-30
2024/01/17 13:39:28;;;;;;;1.67;1.30;;;;;;;16.79;43.52;93948.47;10362996;28;20041;-31
2024/01/17 13:44:28;;;;;;;2.83;1.90;;;;;;;16.81;43.78;93961.88;10361825;28;20034;-30
2024/01/17 13:49:28;;;;;;;2.00;1.17;;;;;;;16.86;42.88;93955.75;10361065;28;20045;-31
2024/01/17 13:54:30;;;;;;;3.07;1.13;;;;;;;16.87;43.28;93941.41;10360884;28;20087;-30
2024/01/17 13:59:31;;;;;;;9.02;1.40;;;;;;;16.87;43.92;93933.84;10361854;28;20289;-30
2024/01/17 14:04:32;;;;;;;9.50;1.38;;;;;;;16.86;44.47;93939.78;10360974;28;20041;-29
2024/01/17 14:09:32;;;;;;;5.47;1.40;;;;;;;16.85;44.73;93933.06;10362051;28;20042;-31
2024/01/17 14:14:35;;;;;;;4.28;1.48;;;;;;;16.84;44.18;93916.28;10361072;28;20038;-30
2024/01/17 14:19:35;;;;;;;3.45;1.58;;;;;;;16.85;44.19;93933.06;10361868;28;20053;-30
2024/01/17 14:24:36;;;;;;;10.43;1.57;;;;;;;16.81;44.12;93929.84;10363265;28;20129;-30
2024/01/17 14:29:36;;;;;;;3.67;1.53;;;;;;;16.82;44.21;93923.91;10359829;28;20595;-31
2024/01/17 14:34:37;;;;;;;3.47;1.37;;;;;;;16.83;43.69;93914.63;10360099;28;20034;-31
2024/01/17 14:39:39;;;;;;;3.50;1.50;;;;;;;16.85;43.29;93907.81;10362413;28;20121;-31
2024/01/17 14:44:39;;;;;;;3.00;1.35;;;;;;;16.84;43.47;93909.50;10367914;28;20033;-30
2024/01/17 14:49:40;;;;;;;4.73;1.90;;;;;;;16.88;43.19;93922.84;10368624;28;20026;-30
2024/01/17 14:54:40;;;;;;;2.80;1.20;;;;;;;16.89;43.20;93904.31;10368998;28;20083;-31
2024/01/17 14:59:40;;;;;;;4.73;1.90;;;;;;;16.88;43.40;93900.09;10368057;28;20038;-31
2024/01/17 15:04:41;;;;;;;6.43;1.67;;;;;;;16.88;43.25;93893.34;10367376;28;20040;-30
2024/01/17 15:09:41;;;;;;;2.13;1.60;;;;;;;16.88;43.44;93883.25;10367084;28;20033;-31
2024/01/17 15:14:42;;;;;;;4.75;1.95;;;;;;;16.88;43.49;93885.78;10369677;28;20037;-30
2024/01/17 15:19:43;;;;;;;3.60;1.80;;;;;;;16.88;43.63;93890.00;10365931;28;20124;-31
2024/01/17 15:24:43;;;;;;;3.07;1.70;;;;;;;16.88;43.34;93902.63;10368135;28;20044;-31
2024/01/17 15:29:43;;;;;;;6.27;1.73;;;;;;;16.89;43.22;93894.19;10367027;28;20292;-31
2024/01/17 15:34:44;;;;;;;4.23;2.23;;;;;;;16.89;43.02;93892.47;10366419;28;20543;-31
2024/01/17 15:39:48;;;;;;;3.72;1.80;;;;;;;16.89;42.98;93909.34;10366695;28;20129;-31
2024/01/17 15:45:07;;;;;;;3.35;1.98;;;;;;;16.94;43.37;93907.47;10362781;28;20545;-30
2024/01/17 15:50:08;;;;;;;9.05;2.80;;;;;;;16.90;43.98;93906.75;10364742;28;20048;-32
2024/01/17 15:55:08;;;;;;;4.68;1.95;;;;;;;16.92;43.81;93915.09;10364979;28;20128;-31
2024/01/17 16:00:09;;;;;;;10.00;2.50;;;;;;;16.94;43.92;93912.50;10366351;28;20521;-32
2024/01/17 16:05:12;;;;;;;6.40;1.80;;;;;;;16.92;43.18;93904.19;10365416;28;20034;-30
2024/01/17 16:10:13;;;;;;;4.83;1.87;;;;;;;16.91;43.36;93922.75;10365507;28;20482;-31
2024/01/17 16:15:13;;;;;;;7.80;2.20;;;;;;;16.90;43.32;93921.09;10365508;28;20324;-31
2024/01/17 16:20:16;;;;;;;5.70;2.13;;;;;;;16.90;43.25;93918.56;10363890;28;20169;-31
2024/01/17 16:25:17;;;;;;;3.20;1.75;;;;;;;16.89;43.54;93922.00;10364264;28;20034;-30
2024/01/17 16:30:17;;;;;;;4.43;1.58;;;;;;;16.75;45.28;93912.38;10365067;28;20516;-30
2024/01/17 16:35:18;;;;;;;2.53;1.60;;;;;;;16.80;44.50;93914.72;10364863;28;20030;-32
2024/01/17 16:40:19;;;;;;;2.90;2.00;;;;;;;16.80;45.34;93904.63;10364157;28;20040;-32
2024/01/17 16:45:19;;;;;;;3.20;2.00;;;;;;;16.82;44.29;93905.41;10363832;28;20038;-30
2024/01/17 16:50:19;;;;;;;1.90;1.63;;;;;;;16.85;43.72;93907.81;10363835;28;20051;-31
2024/01/17 16:55:20;;;;;;;3.60;2.00;;;;;;;16.86;43.88;93917.88;10364139;28;20030;-31
2024/01/17 17:00:20;;;;;;;3.47;1.90;;;;;;;16.88;43.76;93923.69;10363426;28;20116;-32
2024/01/17 17:05:22;;;;;;;2.03;1.52;;;;;;;16.91;43.05;93932.84;10356098;28;20081;-30
2024/01/17 17:10:22;;;;;;;3.63;1.73;;;;;;;16.89;43.77;93924.50;10361057;28;20112;-30
2024/01/17 17:15:22;;;;;;;3.57;2.43;;;;;;;16.89;44.46;93929.56;10361063;28;20033;-30
2024/01/17 17:20:24;;;;;;;3.05;2.15;;;;;;;16.81;43.80;93942.47;10357852;28;20068;-31
2024/01/17 17:25:24;;;;;;;5.45;2.90;;;;;;;16.88;44.60;93938.00;10358913;28;20038;-32
2024/01/17 17:30:25;;;;;;;9.60;4.35;;;;;;;16.85;46.93;93941.50;10360295;28;20168;-31
2024/01/17 17:35:25;;;;;;;7.50;2.47;;;;;;;16.87;44.01;93949.00;10358015;28;20030;-31
2024/01/17 17:40:25;;;;;;;5.30;3.17;;;;;;;16.84;44.45;93949.13;10362240;28;20525;-30
2024/01/17 17:45:26;;;;;;;5.23;3.50;;;;;;;16.81;45.67;93949.25;10360999;28;20037;-31
2024/01/17 17:50:27;;;;;;;5.60;3.60;;;;;;;16.79;46.90;93944.25;10361975;28;20029;-31
2024/01/17 17:55:27;;;;;;;5.00;3.58;;;;;;;16.78;45.79;93934.19;10360068;28;20060;-30
2024/01/17 18:00:28;;;;;;;14.07;3.40;;;;;;;16.81;45.65;93934.91;10358323;28;20049;-38
2024/01/17 18:05:29;;;;;;;6.60;3.40;;;;;;;16.84;45.45;93936.50;10355388;28;20046;-32
2024/01/17 18:10:31;;;;;;;6.32;4.32;;;;;;;16.79;47.79;93934.13;10355378;28;20068;-30
2024/01/17 18:15:33;;;;;;;6.75;3.85;;;;;;;16.80;47.23;93940.00;10358514;28;20036;-31
2024/01/17 18:20:34;;;;;;;7.72;3.80;;;;;;;16.82;46.76;93943.31;10364007;28;20041;-31
2024/01/17 18:25:34;;;;;;;7.23;3.37;;;;;;;16.94;43.81;93937.78;10361273;28;20049;-30
2024/01/17 18:30:35;;;;;;;8.63;3.27;;;;;;;16.99;43.19;93939.25;10360537;28;20296;-31
2024/01/17 18:35:35;;;;;;;6.17;2.97;;;;;;;17.01;43.12;93945.09;10360193;28;20049;-30
2024/01/17 18:40:35;;;;;;;5.20;3.03;;;;;;;17.02;42.83;93941.69;10364823;28;20026;-31
2024/01/17 18:45:38;;;;;;;8.50;2.80;;;;;;;17.02;42.66;93936.63;10366444;28;20292;-30
2024/01/17 18:50:39;;;;;;;5.30;2.97;;;;;;;17.02;42.58;93945.91;10366321;28;20041;-30
2024/01/17 18:55:40;;;;;;;12.10;2.77;;;;;;;17.02;42.43;93941.69;10367089;28;20034;-30
2024/01/17 19:00:41;;;;;;;6.07;2.85;;;;;;;17.04;42.32;93949.19;10363364;28;20104;-32
2024/01/17 19:05:41;;;;;;;6.20;3.03;;;;;;;17.03;42.17;93952.59;10360281;28;20026;-30
2024/01/17 19:10:42;;;;;;;6.20;2.80;;;;;;;17.08;45.31;93950.72;10356836;28;20030;-30
2024/01/17 19:15:45;;;;;;;6.07;3.00;;;;;;;17.08;45.53;93950.72;10362895;28;20040;-31
2024/01/17 19:20:48;;;;;;;5.35;1.55;;;;;;;16.99;51.11;93948.53;10361326;28;20026;-31
2024/01/17 19:25:48;;;;;;;6.38;2.83;;;;;;;17.00;44.81;93948.47;10362472;28;20034;-32
2024/01/17 19:30:48;;;;;;;5.17;2.50;;;;;;;16.96;43.51;93946.94;10357966;28;20037;-31
2024/01/17 19:35:49;;;;;;;4.60;2.30;;;;;;;17.04;43.00;93951.69;10360538;28;20603;-31
2024/01/17 19:40:49;;;;;;;4.03;2.33;;;;;;;17.07;42.67;93946.56;10357219;28;20053;-30
2024/01/17 19:45:54;;;;;;;6.30;2.33;;;;;;;17.10;47.26;93959.06;10360238;28;20041;-32
2024/01/17 19:50:54;;;;;;;5.35;2.05;;;;;;;17.12;43.75;93948.00;10358597;28;20030;-32
2024/01/17 19:55:55;;;;;;;2.63;1.93;;;;;;;17.10;43.66;93952.31;10357706;28;20030;-32
2024/01/17 20:00:56;;;;;;;5.40;2.40;;;;;;;17.12;43.43;93942.13;10361940;28;20490;-30
2024/01/17 20:05:59;;;;;;;5.10;2.22;;;;;;;17.11;43.63;93960.69;10357624;28;20036;-31
2024/01/17 20:11:03;;;;;;;3.03;2.08;;;;;;;17.10;43.20;93964.94;10357627;28;20385;-32
2024/01/17 20:16:04;;;;;;;3.60;1.98;;;;;;;17.09;43.12;93968.31;10357875;28;20042;-33
2024/01/17 20:21:04;;;;;;;4.00;2.15;;;;;;;17.07;42.92;93965.03;10355645;28;20060;-31
2024/01/17 20:26:04;;;;;;;4.45;2.22;;;;;;;17.09;42.84;93977.63;10359696;28;20132;-31
2024/01/17 20:31:05;;;;;;;5.63;1.97;;;;;;;17.03;42.56;93960.16;10358191;28;20083;-31
2024/01/17 20:36:07;;;;;;;2.90;1.70;;;;;;;17.09;42.34;93962.47;10355611;28;20457;-31
2024/01/17 20:41:14;;;;;;;5.70;2.38;;;;;;;17.06;42.50;93972.72;10355737;28;20038;-31
2024/01/17 20:46:15;;;;;;;3.13;1.60;;;;;;;17.09;42.70;93972.59;10359175;28;20525;-31
2024/01/17 20:51:23;;;;;;;4.25;1.88;;;;;;;17.09;42.55;93983.50;10359402;28;20030;-31
2024/01/17 20:56:23;;;;;;;2.88;1.80;;;;;;;17.09;42.07;93978.44;10350790;28;20395;-32
2024/01/17 21:01:30;;;;;;;3.93;1.80;;;;;;;17.10;42.76;93984.34;10358203;28;20038;-31
2024/01/17 21:06:31;;;;;;;4.28;2.20;;;;;;;17.08;42.42;94001.28;10355110;28;20037;-31
2024/01/17 21:11:32;;;;;;;3.90;1.47;;;;;;;17.04;42.51;93995.50;10358734;28;20038;-31
2024/01/17 21:16:32;;;;;;;2.60;1.55;;;;;;;17.10;42.22;94009.59;10358480;28;20030;-31
2024/01/17 21:21:38;;;;;;;3.33;1.73;;;;;;;17.10;42.98;94009.59;10355722;28;20042;-32
2024/01/17 21:26:38;;;;;;;2.97;1.70;;;;;;;17.08;42.23;94001.28;10355070;28;20205;-31
2024/01/17 21:31:39;;;;;;;4.23;1.57;;;;;;;17.08;42.66;94011.38;10353890;28;20305;-30
2024/01/17 21:36:40;;;;;;;3.03;1.48;;;;;;;17.07;42.60;94019.84;10356214;28;20331;-31
2024/01/17 21:41:40;;;;;;;2.23;1.50;;;;;;;16.98;42.27;94018.47;10355573;28;20088;-31
2024/01/17 21:46:41;;;;;;;2.57;1.30;;;;;;;17.05;42.17;94047.69;10357207;28;20340;-31
2024/01/17 21:51:41;;;;;;;2.75;1.60;;;;;;;17.06;41.67;94051.06;10357311;28;20281;-32
2024/01/17 21:56:42;;;;;;;2.80;1.67;;;;;;;17.04;42.19;94048.56;10358912;28;20091;-30
2024/01/17 22:01:42;;;;;;;3.03;1.30;;;;;;;17.03;42.28;94051.16;10360276;28;20296;-30
2024/01/17 22:06:43;;;;;;;2.57;1.30;;;;;;;16.99;41.95;94054.69;10354837;28;20041;-31
2024/01/17 22:11:43;;;;;;;2.90;1.80;;;;;;;17.03;41.83;94058.72;10358612;28;20299;-31
2024/01/17 22:16:43;;;;;;;4.70;1.40;;;;;;;17.01;41.68;94065.56;10359437;28;20037;-32
2024/01/17 22:21:44;;;;;;;2.10;1.60;;;;;;;16.96;41.47;94053.09;10360835;28;20360;-31
2024/01/17 22:26:44;;;;;;;3.07;1.43;;;;;;;16.98;41.74;94055.56;10360867;28;20042;-31
2024/01/17 22:31:44;;;;;;;1.57;1.00;;;;;;;16.97;41.65;94053.88;10360076;28;20038;-31
2024/01/17 22:36:44;;;;;;;1.87;1.00;;;;;;;16.86;41.26;94030.72;10361382;28;20053;-31
2024/01/17 22:41:45;;;;;;;1.13;0.90;;;;;;;16.98;41.21;94053.84;10360445;28;20037;-32
2024/01/17 22:46:45;;;;;;;2.55;1.58;;;;;;;17.00;41.10;94059.66;10360783;28;20389;-31
2024/01/17 22:51:53;;;;;;;1.90;1.20;;;;;;;17.02;41.29;94046.97;10359997;28;20044;-31
2024/01/17 22:56:53;;;;;;;2.10;1.30;;;;;;;17.03;41.00;94059.56;10360716;28;20485;-31
2024/01/17 23:01:53;;;;;;;2.30;1.00;;;;;;;17.04;41.39;94062.91;10360146;28;20046;-31
2024/01/17 23:06:54;;;;;;;1.17;0.90;;;;;;;17.03;41.42;94062.09;10367655;28;20042;-31
2024/01/17 23:11:54;;;;;;;1.27;0.97;;;;;;;17.03;41.40;94053.69;10366663;28;20060;-31
2024/01/17 23:16:55;;;;;;;1.60;0.80;;;;;;;17.02;40.79;94062.13;10367751;28;20625;-30
2024/01/17 23:21:55;;;;;;;2.57;1.43;;;;;;;17.02;40.77;94052.03;10366051;28;20079;-30
2024/01/17 23:26:56;;;;;;;1.53;1.20;;;;;;;17.00;40.77;94053.78;10366945;28;20293;-31